Pagrindinis puslapis
METAR-TAF:

METAR-TAF

Oro uostai :

Karlstadas, Švedija

platuma: 59-26-41N, ilguma: 013-20-15E, Aukštis: 107 m

Dabartinis oras

Ataskaita buvo paskelbta 14 minutes, ne 10:50 UTC
Vėjas 5 kt iš Šiaurės/Šiaurės Vakarų
Temperatūra -6°C
Drėgmė 86%
Slėgis 1008 hPa
Matomumas 10 km arba daugiau
nėra debesų žemiau 1500 m ir nėra kamuolinių lietaus debesų

METAR: ESOK 071050Z 33005KT CAVOK M06/M08 Q1008

Laikas: 12:04 (11:04 UTC)

Prognozė

Ataskaita buvo paskelbta 2 valandos ir 34 minutes, ne 08:30 UTC
Prognozė galioja nuo 07 metu 09 UTC su 07 metu 16 UTC
Vėjas 5 kt iš Šiaurės/Šiaurės Vakarų
Matomumas 10 km arba daugiau
nėra debesų žemiau 1500 m ir nėra kamuolinių lietaus debesų

TAF: ESOK 070830Z 0709/0716 34005KT CAVOK

Orai ataskaitas ir orų prognozės (METAR, TAF).

turimą stotys yra geltonos ir raudonos taškus žemėlapyje.

Perkelti pele per norėdami pamatyti stoties vardą.

Tada spustelėkite, norėdami matyti oro stebėjimo ir prognozės.

Norėdami pakeisti žemėlapį: spustelėkite ant žalios mygtukų su juodo kryžiaus žemyn,; žalią mygtuką su brūkšneliu, jei norite nutolinti; arba žalių rodyklių gretimoms žemėlapius.


METAR-TAF: